createdAt,value
2023-01-13T00:01:27.735Z,99.00
2023-01-13T00:03:54.402Z,98.58
2023-01-13T00:06:22.362Z,99.08
2023-01-13T00:08:50.023Z,99.14
2023-01-13T00:11:17.068Z,99.23
2023-01-13T00:13:43.621Z,99.27
2023-01-13T00:16:12.221Z,98.81
2023-01-13T00:18:38.785Z,99.29
2023-01-13T00:21:11.417Z,99.67
2023-01-13T00:23:38.245Z,99.49
2023-01-13T00:26:06.152Z,100.00
2023-01-13T00:28:32.824Z,100.00
2023-01-13T00:31:09.819Z,100.00
2023-01-13T00:33:36.579Z,100.00
2023-01-13T00:36:03.779Z,97.17
2023-01-13T00:38:31.522Z,98.87
2023-01-13T00:40:58.845Z,98.79
2023-01-13T00:43:26.782Z,98.94
2023-01-13T00:45:53.906Z,99.82
2023-01-13T00:48:21.100Z,100.00
2023-01-13T00:50:47.725Z,99.73
2023-01-13T00:53:14.861Z,98.98
2023-01-13T00:55:41.336Z,97.96
2023-01-13T00:58:07.823Z,96.58
2023-01-13T01:00:34.357Z,97.88
2023-01-13T01:03:01.053Z,98.28
2023-01-13T01:05:27.537Z,98.58
2023-01-13T01:07:54.028Z,98.82
2023-01-13T01:10:20.495Z,98.89
2023-01-13T01:12:46.915Z,99.45
2023-01-13T01:15:13.547Z,99.21
2023-01-13T01:17:39.989Z,99.23
2023-01-13T01:20:06.728Z,99.03
2023-01-13T01:22:33.301Z,99.33
2023-01-13T01:24:59.891Z,98.70
2023-01-13T01:27:26.356Z,98.58
2023-01-13T01:29:53.112Z,98.60
2023-01-13T01:32:19.545Z,99.24
2023-01-13T01:34:45.989Z,98.81
2023-01-13T01:37:12.414Z,99.08
2023-01-13T01:39:38.881Z,98.84
2023-01-13T01:42:24.053Z,97.96
2023-01-13T01:44:56.529Z,97.56
2023-01-13T01:47:24.690Z,97.84
2023-01-13T01:49:51.339Z,99.40
2023-01-13T01:52:21.463Z,99.88
2023-01-13T01:54:54.419Z,99.31
2023-01-13T01:57:27.477Z,99.48
2023-01-13T01:59:54.298Z,99.45
2023-01-13T02:02:21.419Z,98.92
2023-01-13T02:04:51.536Z,98.20
2023-01-13T02:07:20.762Z,99.08
2023-01-13T02:09:48.150Z,99.09
2023-01-13T02:12:30.340Z,99.46
2023-01-13T02:14:59.242Z,99.66
2023-01-13T02:17:25.665Z,99.57
2023-01-13T02:20:07.435Z,99.90
2023-01-13T02:22:42.938Z,100.00
2023-01-13T02:25:24.229Z,100.00
2023-01-13T02:28:02.782Z,99.92
2023-01-13T02:30:48.041Z,99.69
2023-01-13T02:33:26.790Z,98.75
2023-01-13T02:36:11.966Z,99.81
2023-01-13T02:38:46.156Z,100.00
2023-01-13T02:41:34.572Z,99.40
2023-01-13T02:44:09.255Z,98.52
2023-01-13T02:46:41.725Z,98.81
2023-01-13T02:49:10.169Z,99.13
2023-01-13T02:51:37.679Z,100.00
2023-01-13T02:54:08.167Z,100.00
2023-01-13T02:56:38.139Z,100.00
2023-01-13T02:59:05.341Z,100.00
2023-01-13T03:01:31.915Z,99.92
2023-01-13T03:03:58.483Z,100.00
2023-01-13T03:06:36.606Z,99.98
2023-01-13T03:09:18.439Z,99.55
2023-01-13T03:11:56.655Z,99.80
2023-01-13T03:14:38.332Z,95.58
2023-01-13T03:17:21.715Z,97.53
2023-01-13T03:19:57.176Z,98.75
2023-01-13T03:22:31.407Z,99.17
2023-01-13T03:25:06.998Z,98.28
2023-01-13T03:27:41.623Z,98.94
2023-01-13T03:30:16.416Z,99.20
2023-01-13T03:32:44.435Z,99.48
2023-01-13T03:35:13.942Z,99.10
2023-01-13T03:37:42.376Z,99.33
2023-01-13T03:40:12.545Z,99.57
2023-01-13T03:42:41.629Z,95.55
2023-01-13T03:45:11.888Z,96.01
2023-01-13T03:47:41.572Z,97.05
2023-01-13T03:50:34.480Z,97.80
2023-01-13T03:53:05.164Z,93.75
2023-01-13T03:55:33.926Z,98.62
2023-01-13T03:58:14.225Z,99.47
2023-01-13T04:00:47.652Z,99.44
2023-01-13T04:03:18.238Z,100.00
2023-01-13T04:05:47.381Z,99.75
2023-01-13T04:08:20.937Z,98.63
2023-01-13T04:11:00.145Z,98.65
2023-01-13T04:13:29.249Z,97.94
2023-01-13T04:15:55.886Z,97.98
2023-01-13T04:18:24.708Z,98.38
2023-01-13T04:20:52.201Z,96.73
2023-01-13T04:23:19.329Z,97.36
2023-01-13T04:25:46.351Z,98.14
2023-01-13T04:28:13.408Z,95.70
2023-01-13T04:30:40.377Z,96.79
2023-01-13T04:33:07.174Z,96.96
2023-01-13T04:35:34.260Z,97.11
2023-01-13T04:38:04.635Z,98.09
2023-01-13T04:40:31.291Z,98.30
2023-01-13T04:42:57.888Z,98.14
2023-01-13T04:45:24.435Z,98.47
2023-01-13T04:47:51.620Z,98.46
2023-01-13T04:50:21.079Z,98.25
2023-01-13T04:52:47.725Z,98.60
2023-01-13T04:55:14.258Z,98.55
2023-01-13T04:57:40.779Z,98.46
2023-01-13T05:00:07.915Z,98.22
2023-01-13T05:02:34.371Z,97.85
2023-01-13T05:05:01.030Z,97.68
2023-01-13T05:07:27.594Z,98.14
2023-01-13T05:09:54.190Z,95.66
2023-01-13T05:12:39.088Z,96.16
2023-01-13T05:15:24.676Z,96.72
2023-01-13T05:17:51.381Z,98.13
2023-01-13T05:20:18.325Z,98.43
2023-01-13T05:23:03.444Z,97.93
2023-01-13T05:25:30.013Z,97.87
2023-01-13T05:27:57.762Z,97.90
2023-01-13T05:30:25.564Z,97.91
2023-01-13T05:32:52.165Z,98.28
2023-01-13T05:35:18.652Z,98.43
2023-01-13T05:37:45.604Z,97.74
2023-01-13T05:40:31.803Z,94.51
2023-01-13T05:43:21.377Z,96.58
2023-01-13T05:45:49.305Z,97.40
2023-01-13T05:48:16.364Z,97.93
2023-01-13T05:50:42.984Z,97.39
2023-01-13T05:53:09.527Z,97.62
2023-01-13T05:55:38.211Z,96.98
2023-01-13T05:58:04.621Z,97.17
2023-01-13T06:00:31.077Z,97.58
2023-01-13T06:02:57.594Z,96.24
2023-01-13T06:05:24.173Z,94.83
2023-01-13T06:07:50.828Z,96.26
2023-01-13T06:10:19.195Z,97.77
2023-01-13T06:12:45.673Z,97.83
2023-01-13T06:15:12.108Z,98.36
2023-01-13T06:17:38.647Z,97.95
2023-01-13T06:20:05.364Z,98.51
2023-01-13T06:22:33.057Z,98.12
2023-01-13T06:24:59.557Z,98.29
2023-01-13T06:27:26.333Z,97.63
2023-01-13T06:29:52.783Z,98.79
2023-01-13T06:32:22.542Z,99.24
2023-01-13T06:34:52.991Z,98.34
2023-01-13T06:37:21.635Z,98.36
2023-01-13T06:39:48.819Z,99.10
2023-01-13T06:42:34.274Z,98.79
2023-01-13T06:45:00.909Z,98.61
2023-01-13T06:47:27.349Z,98.73
2023-01-13T06:49:53.900Z,98.86
2023-01-13T06:52:20.414Z,99.04
2023-01-13T06:54:46.856Z,99.16
2023-01-13T06:57:13.504Z,98.97
2023-01-13T06:59:39.950Z,98.69
2023-01-13T07:02:06.825Z,98.75
2023-01-13T07:04:33.460Z,98.25
2023-01-13T07:07:00.079Z,98.76
2023-01-13T07:09:26.522Z,98.82
2023-01-13T07:11:53.040Z,98.77
2023-01-13T07:14:38.279Z,98.41
2023-01-13T07:17:04.784Z,99.10
2023-01-13T07:19:31.266Z,99.28
2023-01-13T07:21:57.717Z,99.70
2023-01-13T07:24:24.206Z,99.35
2023-01-13T07:26:50.954Z,99.49
2023-01-13T07:29:17.429Z,99.04
2023-01-13T07:31:44.089Z,99.28
2023-01-13T07:34:10.590Z,98.73
2023-01-13T07:36:37.161Z,98.35
2023-01-13T07:39:03.754Z,98.45
2023-01-13T07:41:49.088Z,98.83
2023-01-13T07:44:15.589Z,98.53
2023-01-13T07:46:42.091Z,98.83
2023-01-13T07:49:08.774Z,98.68
2023-01-13T07:51:36.004Z,98.92
2023-01-13T07:54:02.499Z,99.09
2023-01-13T07:56:28.984Z,99.62
2023-01-13T07:58:55.504Z,99.31
2023-01-13T08:01:22.314Z,99.75
2023-01-13T08:03:48.873Z,99.65
2023-01-13T08:06:15.519Z,99.05
2023-01-13T08:08:42.052Z,98.48
2023-01-13T08:11:08.576Z,98.36
2023-01-13T08:13:35.194Z,98.18
2023-01-13T08:16:02.893Z,97.58
2023-01-13T08:18:29.825Z,97.89
2023-01-13T08:20:56.284Z,97.71
2023-01-13T08:23:23.301Z,97.92
2023-01-13T08:25:50.074Z,97.30
2023-01-13T08:28:16.939Z,97.26
2023-01-13T08:30:43.928Z,96.58
2023-01-13T08:33:11.640Z,95.68
2023-01-13T08:35:39.066Z,96.41
2023-01-13T08:38:06.336Z,96.68
2023-01-13T08:40:33.046Z,95.94
2023-01-13T08:42:59.534Z,96.07
2023-01-13T08:45:26.209Z,95.09
2023-01-13T08:47:52.697Z,93.51
2023-01-13T08:50:19.422Z,92.72
2023-01-13T08:52:45.867Z,93.63
2023-01-13T08:55:12.446Z,94.62
2023-01-13T08:57:38.900Z,94.66
2023-01-13T09:00:07.230Z,94.79
2023-01-13T09:02:33.787Z,92.98
2023-01-13T09:05:04.482Z,91.13
2023-01-13T09:07:31.111Z,90.64
2023-01-13T09:09:57.597Z,91.07
2023-01-13T09:12:42.759Z,91.00
2023-01-13T09:15:09.774Z,88.58
2023-01-13T09:17:36.310Z,87.96
2023-01-13T09:20:02.818Z,87.97
2023-01-13T09:22:29.301Z,87.60
2023-01-13T09:24:56.291Z,85.88
2023-01-13T09:27:23.029Z,84.75
2023-01-13T09:29:49.969Z,83.28
2023-01-13T09:32:16.465Z,82.69
2023-01-13T09:35:01.326Z,84.43
2023-01-13T09:37:28.617Z,82.77
2023-01-13T09:39:55.167Z,83.56
2023-01-13T09:42:43.453Z,83.55
2023-01-13T09:45:16.029Z,84.25
2023-01-13T09:48:01.468Z,85.43
2023-01-13T09:50:41.804Z,84.52
2023-01-13T09:53:12.168Z,82.79
2023-01-13T09:55:38.679Z,83.26
2023-01-13T09:58:16.816Z,83.63
2023-01-13T10:01:03.748Z,83.61
2023-01-13T10:03:31.033Z,83.23
2023-01-13T10:06:04.648Z,82.04
2023-01-13T10:08:42.221Z,80.60
2023-01-13T10:11:37.917Z,78.82
2023-01-13T10:14:15.640Z,80.13
2023-01-13T10:16:54.649Z,79.25
2023-01-13T10:19:25.574Z,79.46
2023-01-13T10:22:09.256Z,76.65
2023-01-13T10:24:54.109Z,74.16
2023-01-13T10:27:23.671Z,74.94
2023-01-13T10:29:50.180Z,75.61
2023-01-13T10:32:16.644Z,76.62
2023-01-13T10:34:49.786Z,77.82
2023-01-13T10:37:21.024Z,78.16
2023-01-13T10:39:48.311Z,76.23
2023-01-13T10:42:18.880Z,75.35
2023-01-13T10:44:52.816Z,75.16
2023-01-13T10:47:27.367Z,75.60
2023-01-13T10:50:12.248Z,73.57
2023-01-13T10:52:42.855Z,73.29
2023-01-13T10:55:30.489Z,75.76
2023-01-13T10:57:56.997Z,75.71
2023-01-13T11:00:26.549Z,76.47
2023-01-13T11:03:13.123Z,77.30
2023-01-13T11:05:39.902Z,78.20
2023-01-13T11:08:15.332Z,78.34
2023-01-13T11:10:45.248Z,75.41
2023-01-13T11:13:15.834Z,73.36
2023-01-13T11:15:53.994Z,73.78
2023-01-13T11:18:30.962Z,69.80
2023-01-13T11:20:58.950Z,67.26
2023-01-13T11:23:37.075Z,62.60
2023-01-13T11:26:17.483Z,59.96
2023-01-13T11:28:47.031Z,56.40
2023-01-13T11:31:27.240Z,54.37
2023-01-13T11:34:04.473Z,53.24
2023-01-13T11:36:38.751Z,54.31
2023-01-13T11:39:16.444Z,51.13
2023-01-13T11:41:44.344Z,51.41
2023-01-13T11:44:15.115Z,50.97
2023-01-13T11:46:42.038Z,50.53
2023-01-13T11:49:15.162Z,52.73
2023-01-13T11:52:04.623Z,50.74
2023-01-13T11:54:52.264Z,50.06
2023-01-13T11:57:21.705Z,49.01
2023-01-13T12:00:02.944Z,47.14
2023-01-13T12:03:00.723Z,47.55
2023-01-13T12:05:35.971Z,48.90
2023-01-13T12:08:19.097Z,51.80
2023-01-13T12:10:45.646Z,52.52
2023-01-13T12:13:22.240Z,53.46
2023-01-13T12:15:51.485Z,53.37
2023-01-13T12:18:31.814Z,55.29
2023-01-13T12:21:17.226Z,55.74
2023-01-13T12:24:03.943Z,54.62
2023-01-13T12:26:32.963Z,54.95
2023-01-13T12:29:19.684Z,55.37
2023-01-13T12:31:50.021Z,54.47
2023-01-13T12:34:39.806Z,55.22
2023-01-13T12:37:16.683Z,56.49
2023-01-13T12:39:58.681Z,55.21
2023-01-13T12:42:50.063Z,55.43
2023-01-13T12:45:18.458Z,55.75
2023-01-13T12:47:48.380Z,55.65
2023-01-13T12:50:24.784Z,55.85
2023-01-13T12:52:51.230Z,56.85
2023-01-13T12:55:20.804Z,58.54
2023-01-13T12:57:59.722Z,57.63
2023-01-13T13:00:38.250Z,57.85
2023-01-13T13:03:05.016Z,57.39
2023-01-13T13:05:38.357Z,55.88
2023-01-13T13:08:14.675Z,56.59
2023-01-13T13:10:45.301Z,57.49
2023-01-13T13:13:39.669Z,56.74
2023-01-13T13:16:38.614Z,58.21
2023-01-13T13:19:21.101Z,58.22
2023-01-13T13:22:06.104Z,58.84
2023-01-13T13:24:32.764Z,57.71
2023-01-13T13:27:16.078Z,57.67
2023-01-13T13:29:57.884Z,58.35
2023-01-13T13:32:33.581Z,59.20
2023-01-13T13:35:03.088Z,57.70
2023-01-13T13:37:54.675Z,59.48
2023-01-13T13:40:40.449Z,60.03
2023-01-13T13:43:29.790Z,59.00
2023-01-13T13:46:15.013Z,61.40
2023-01-13T13:48:50.470Z,60.65
2023-01-13T13:51:28.486Z,61.03
2023-01-13T13:53:55.840Z,61.66
2023-01-13T13:56:24.631Z,62.06
2023-01-13T13:58:52.323Z,60.11
2023-01-13T14:01:24.743Z,60.75
2023-01-13T14:04:10.032Z,61.06
2023-01-13T14:06:36.516Z,61.09
2023-01-13T14:09:04.038Z,62.06
2023-01-13T14:11:32.267Z,61.10
2023-01-13T14:14:03.812Z,63.53
2023-01-13T14:16:30.959Z,64.20
2023-01-13T14:18:57.457Z,63.87
2023-01-13T14:21:28.259Z,64.39
2023-01-13T14:23:56.733Z,65.26
2023-01-13T14:26:27.599Z,64.94
2023-01-13T14:28:55.146Z,64.51
2023-01-13T14:31:22.094Z,65.94
2023-01-13T14:33:53.685Z,67.25
2023-01-13T14:36:21.454Z,66.75
2023-01-13T14:38:49.595Z,67.42
2023-01-13T14:41:18.340Z,66.86
2023-01-13T14:43:45.747Z,67.17
2023-01-13T14:46:12.855Z,68.01
2023-01-13T14:48:41.006Z,68.97
2023-01-13T14:51:10.868Z,68.80
2023-01-13T14:53:40.500Z,70.41
2023-01-13T14:56:27.886Z,73.28
2023-01-13T14:58:55.526Z,74.01
2023-01-13T15:01:27.171Z,73.26
2023-01-13T15:03:53.857Z,72.64
2023-01-13T15:06:29.521Z,72.98
2023-01-13T15:08:56.008Z,72.11
2023-01-13T15:11:25.096Z,72.18
2023-01-13T15:14:01.246Z,72.04
2023-01-13T15:16:28.371Z,73.41
2023-01-13T15:18:55.325Z,73.93
2023-01-13T15:21:23.050Z,75.00
2023-01-13T15:23:49.642Z,74.72
2023-01-13T15:26:24.377Z,76.05
2023-01-13T15:28:51.698Z,76.62
2023-01-13T15:31:18.291Z,77.13
2023-01-13T15:33:44.886Z,76.04
2023-01-13T15:36:18.865Z,76.26
2023-01-13T15:38:45.310Z,75.22
2023-01-13T15:41:13.822Z,75.68
2023-01-13T15:43:59.255Z,76.12
2023-01-13T15:46:38.582Z,74.83
2023-01-13T15:49:09.851Z,75.17
2023-01-13T15:51:37.068Z,76.33
2023-01-13T15:54:03.657Z,75.69
2023-01-13T15:56:30.206Z,75.55
2023-01-13T15:58:57.196Z,73.56
2023-01-13T16:01:23.823Z,73.92
2023-01-13T16:03:52.210Z,74.37
2023-01-13T16:06:20.062Z,74.57
2023-01-13T16:08:46.596Z,74.68
2023-01-13T16:11:13.412Z,74.24
2023-01-13T16:13:39.986Z,75.97
2023-01-13T16:16:18.502Z,77.76
2023-01-13T16:18:45.091Z,78.34
2023-01-13T16:21:12.445Z,78.73
2023-01-13T16:23:38.899Z,79.45
2023-01-13T16:26:06.014Z,78.63
2023-01-13T16:28:35.319Z,79.84
2023-01-13T16:31:14.683Z,80.76
2023-01-13T16:33:41.142Z,81.60
2023-01-13T16:36:14.840Z,81.75
2023-01-13T16:38:41.695Z,81.02
2023-01-13T16:41:08.693Z,80.69
2023-01-13T16:43:35.765Z,79.15
2023-01-13T16:46:02.309Z,79.86
2023-01-13T16:48:28.814Z,81.00
2023-01-13T16:50:55.582Z,82.96
2023-01-13T16:53:22.054Z,83.02
2023-01-13T16:55:48.555Z,83.48
2023-01-13T16:58:19.807Z,83.84
2023-01-13T17:00:47.417Z,85.13
2023-01-13T17:03:14.572Z,85.57
2023-01-13T17:05:41.476Z,85.19
2023-01-13T17:08:10.207Z,85.09
2023-01-13T17:10:36.657Z,83.76
2023-01-13T17:13:14.722Z,84.16
2023-01-13T17:15:42.664Z,84.71
2023-01-13T17:18:09.112Z,84.97
2023-01-13T17:20:35.541Z,85.23
2023-01-13T17:23:02.025Z,85.11
2023-01-13T17:25:28.506Z,84.66
2023-01-13T17:27:54.947Z,84.18
2023-01-13T17:30:21.495Z,84.44
2023-01-13T17:32:48.017Z,85.09
2023-01-13T17:35:18.881Z,85.19
2023-01-13T17:37:45.896Z,84.98
2023-01-13T17:40:12.657Z,84.65
2023-01-13T17:42:39.096Z,85.18
2023-01-13T17:45:06.237Z,85.47
2023-01-13T17:47:32.740Z,86.43
2023-01-13T17:49:59.368Z,86.70
2023-01-13T17:52:25.837Z,86.05
2023-01-13T17:54:52.791Z,85.64
2023-01-13T17:57:19.247Z,86.14
2023-01-13T17:59:47.936Z,86.39
2023-01-13T18:02:14.732Z,86.83
2023-01-13T18:04:42.021Z,87.10
2023-01-13T18:07:08.688Z,86.53
2023-01-13T18:09:35.133Z,86.92
2023-01-13T18:12:02.004Z,87.04
2023-01-13T18:14:28.419Z,87.48
2023-01-13T18:16:55.082Z,86.63
2023-01-13T18:19:40.556Z,86.22
2023-01-13T18:22:25.838Z,85.59
2023-01-13T18:25:11.046Z,85.35
2023-01-13T18:27:41.419Z,85.95
2023-01-13T18:30:08.588Z,86.71
2023-01-13T18:32:35.280Z,86.49
2023-01-13T18:35:06.426Z,86.70
2023-01-13T18:37:35.932Z,86.48
2023-01-13T18:40:02.816Z,86.42
2023-01-13T18:42:48.053Z,86.47
2023-01-13T18:45:14.576Z,85.84
2023-01-13T18:47:42.279Z,85.60
2023-01-13T18:50:09.455Z,85.52
2023-01-13T18:52:36.376Z,86.39
2023-01-13T18:55:02.995Z,87.09
2023-01-13T18:57:29.748Z,88.08
2023-01-13T18:59:59.184Z,87.79
2023-01-13T19:02:27.737Z,87.79
2023-01-13T19:04:54.452Z,87.89
2023-01-13T19:07:27.236Z,87.68
2023-01-13T19:09:57.508Z,87.71
2023-01-13T19:12:26.373Z,88.02
2023-01-13T19:14:55.987Z,87.87
2023-01-13T19:17:23.190Z,87.54
2023-01-13T19:19:53.812Z,88.62
2023-01-13T19:22:30.925Z,89.29
2023-01-13T19:24:57.952Z,89.06
2023-01-13T19:27:24.936Z,89.37
2023-01-13T19:29:52.467Z,88.73
2023-01-13T19:32:20.741Z,84.44
2023-01-13T19:34:49.409Z,86.02
2023-01-13T19:37:15.924Z,87.27
2023-01-13T19:39:42.517Z,88.18
2023-01-13T19:42:29.042Z,88.15
2023-01-13T19:45:14.184Z,87.54
2023-01-13T19:47:40.959Z,87.66
2023-01-13T19:50:08.636Z,87.53
2023-01-13T19:52:35.165Z,87.84
2023-01-13T19:55:02.043Z,87.63
2023-01-13T19:57:28.667Z,87.26
2023-01-13T19:59:55.131Z,87.92
2023-01-13T20:02:28.345Z,85.14
2023-01-13T20:04:55.984Z,86.50
2023-01-13T20:07:23.858Z,87.91
2023-01-13T20:09:50.672Z,88.46
2023-01-13T20:12:17.169Z,88.65
2023-01-13T20:14:44.150Z,87.20
2023-01-13T20:17:12.135Z,87.85
2023-01-13T20:19:38.586Z,87.05
2023-01-13T20:22:05.085Z,87.54
2023-01-13T20:24:31.620Z,86.98
2023-01-13T20:26:58.132Z,86.45
2023-01-13T20:29:24.629Z,87.37
2023-01-13T20:31:51.249Z,88.19
2023-01-13T20:34:20.427Z,88.84
2023-01-13T20:36:47.539Z,88.30
2023-01-13T20:39:21.738Z,87.74
2023-01-13T20:42:06.612Z,89.09
2023-01-13T20:44:33.477Z,87.52
2023-01-13T20:47:00.068Z,87.48
2023-01-13T20:49:27.493Z,88.26
2023-01-13T20:51:54.503Z,88.43
2023-01-13T20:54:21.161Z,87.81
2023-01-13T20:56:47.627Z,88.60
2023-01-13T20:59:14.390Z,89.32
2023-01-13T21:01:40.926Z,89.71
2023-01-13T21:04:07.460Z,89.52
2023-01-13T21:06:34.213Z,89.36
2023-01-13T21:09:00.770Z,90.02
2023-01-13T21:11:46.499Z,89.03
2023-01-13T21:14:33.135Z,89.44
2023-01-13T21:16:59.658Z,89.40
2023-01-13T21:19:26.217Z,88.58
2023-01-13T21:21:52.721Z,88.12
2023-01-13T21:24:19.329Z,88.20
2023-01-13T21:26:45.760Z,88.39
2023-01-13T21:29:12.226Z,88.65
2023-01-13T21:31:38.738Z,88.54
2023-01-13T21:34:05.285Z,88.06
2023-01-13T21:36:31.706Z,87.44
2023-01-13T21:38:59.190Z,86.98
2023-01-13T21:41:44.568Z,87.09
2023-01-13T21:44:34.244Z,86.92
2023-01-13T21:47:19.362Z,86.46
2023-01-13T21:49:45.913Z,85.40
2023-01-13T21:52:12.851Z,85.60
2023-01-13T21:54:59.654Z,86.18
2023-01-13T21:57:27.412Z,86.16
2023-01-13T21:59:53.959Z,86.68
2023-01-13T22:02:31.924Z,88.09
2023-01-13T22:04:59.287Z,89.60
2023-01-13T22:07:27.100Z,90.93
2023-01-13T22:09:53.762Z,90.63
2023-01-13T22:12:23.862Z,89.64
2023-01-13T22:14:51.495Z,89.88
2023-01-13T22:17:20.486Z,89.20
2023-01-13T22:19:47.899Z,88.54
2023-01-13T22:22:15.908Z,89.16
2023-01-13T22:24:47.160Z,89.88
2023-01-13T22:27:15.188Z,90.19
2023-01-13T22:29:42.661Z,90.66
2023-01-13T22:32:09.177Z,91.89
2023-01-13T22:34:35.724Z,92.13
2023-01-13T22:37:02.186Z,91.77
2023-01-13T22:39:28.954Z,92.27
2023-01-13T22:41:55.646Z,92.76
2023-01-13T22:44:22.079Z,93.25
2023-01-13T22:46:48.885Z,94.48
2023-01-13T22:49:15.757Z,93.91
2023-01-13T22:51:42.819Z,93.97
2023-01-13T22:54:09.659Z,94.70
2023-01-13T22:56:36.647Z,94.75
2023-01-13T22:59:04.443Z,94.73
2023-01-13T23:01:32.564Z,91.25
2023-01-13T23:03:59.256Z,91.54
2023-01-13T23:06:26.833Z,93.79
2023-01-13T23:08:53.970Z,94.17
2023-01-13T23:11:23.431Z,94.66
2023-01-13T23:13:50.532Z,96.18
2023-01-13T23:16:18.743Z,95.61
2023-01-13T23:18:47.875Z,96.41
2023-01-13T23:21:17.250Z,96.71
2023-01-13T23:23:43.906Z,97.25
2023-01-13T23:26:10.807Z,96.52
2023-01-13T23:28:37.857Z,96.27
2023-01-13T23:31:08.510Z,96.29
2023-01-13T23:33:35.939Z,96.29
2023-01-13T23:36:04.058Z,95.67
2023-01-13T23:38:30.952Z,95.56
2023-01-13T23:40:57.505Z,95.26
2023-01-13T23:43:26.127Z,95.40
2023-01-13T23:45:53.413Z,95.81
2023-01-13T23:48:19.978Z,95.21
2023-01-13T23:50:56.321Z,95.91
2023-01-13T23:53:22.808Z,95.59
2023-01-13T23:55:49.354Z,95.90
2023-01-13T23:58:15.839Z,96.04
